createdAt,value
2023-03-22T00:00:37.321Z,6.61
2023-03-22T00:03:19.212Z,6.56
2023-03-22T00:05:47.037Z,6.49
2023-03-22T00:08:14.894Z,6.45
2023-03-22T00:10:42.815Z,6.42
2023-03-22T00:13:11.670Z,6.41
2023-03-22T00:15:39.673Z,6.42
2023-03-22T00:18:08.446Z,6.40
2023-03-22T00:20:38.671Z,6.38
2023-03-22T00:23:09.194Z,6.34
2023-03-22T00:25:37.028Z,6.34
2023-03-22T00:28:05.041Z,6.35
2023-03-22T00:30:32.905Z,6.35
2023-03-22T00:33:00.859Z,6.29
2023-03-22T00:35:28.985Z,6.25
2023-03-22T00:37:57.152Z,6.24
2023-03-22T00:40:25.088Z,6.22
2023-03-22T00:42:52.856Z,6.22
2023-03-22T00:45:20.709Z,6.22
2023-03-22T00:47:48.833Z,6.21
2023-03-22T00:50:18.809Z,6.24
2023-03-22T00:52:46.785Z,6.25
2023-03-22T00:55:15.166Z,6.24
2023-03-22T00:57:43.232Z,6.24
2023-03-22T01:00:13.735Z,6.25
2023-03-22T01:02:42.618Z,6.27
2023-03-22T01:05:16.138Z,6.24
2023-03-22T01:07:45.058Z,6.22
2023-03-22T01:10:13.125Z,6.16
2023-03-22T01:12:41.191Z,6.11
2023-03-22T01:15:10.178Z,6.08
2023-03-22T01:17:38.251Z,6.02
2023-03-22T01:20:07.036Z,5.91
2023-03-22T01:22:34.864Z,5.81
2023-03-22T01:25:03.289Z,5.74
2023-03-22T01:27:31.567Z,5.69
2023-03-22T01:29:59.619Z,5.64
2023-03-22T01:32:27.715Z,5.59
2023-03-22T01:34:55.775Z,5.55
2023-03-22T01:37:27.843Z,5.50
2023-03-22T01:39:56.119Z,5.44
2023-03-22T01:42:25.112Z,5.42
2023-03-22T01:45:12.103Z,5.41
2023-03-22T01:47:41.909Z,5.36
2023-03-22T01:50:10.834Z,5.32
2023-03-22T01:52:39.116Z,5.28
2023-03-22T01:55:12.507Z,5.22
2023-03-22T01:57:45.082Z,5.16
2023-03-22T02:00:19.064Z,5.13
2023-03-22T02:03:23.118Z,5.12
2023-03-22T02:05:51.085Z,5.10
2023-03-22T02:08:20.275Z,5.06
2023-03-22T02:10:57.155Z,4.99
2023-03-22T02:13:30.974Z,4.94
2023-03-22T02:16:16.805Z,4.89
2023-03-22T02:19:14.284Z,4.87
2023-03-22T02:21:56.018Z,4.85
2023-03-22T02:24:27.078Z,4.83
2023-03-22T02:27:10.689Z,4.80
2023-03-22T02:29:39.177Z,4.73
2023-03-22T02:32:07.135Z,4.67
2023-03-22T02:34:51.285Z,4.65
2023-03-22T02:37:38.092Z,4.62
2023-03-22T02:40:15.413Z,4.57
2023-03-22T02:43:02.388Z,4.54
2023-03-22T02:45:36.978Z,4.53
2023-03-22T02:48:11.728Z,4.52
2023-03-22T02:50:51.476Z,4.50
2023-03-22T02:53:21.637Z,4.50
2023-03-22T02:55:55.987Z,4.50
2023-03-22T02:58:27.290Z,4.49
2023-03-22T03:00:57.652Z,4.49
2023-03-22T03:03:29.436Z,4.49
2023-03-22T03:05:59.798Z,4.50
2023-03-22T03:08:29.498Z,4.50
2023-03-22T03:10:58.212Z,4.51
2023-03-22T03:13:26.244Z,4.49
2023-03-22T03:15:58.797Z,4.46
2023-03-22T03:18:33.059Z,4.45
2023-03-22T03:21:07.478Z,4.40
2023-03-22T03:23:35.452Z,4.36
2023-03-22T03:26:11.810Z,4.34
2023-03-22T03:28:58.735Z,4.31
2023-03-22T03:31:45.975Z,4.30
2023-03-22T03:34:17.812Z,4.31
2023-03-22T03:36:59.398Z,4.33
2023-03-22T03:39:30.956Z,4.35
2023-03-22T03:42:01.183Z,4.36
2023-03-22T03:44:31.294Z,4.38
2023-03-22T03:46:59.869Z,4.39
2023-03-22T03:49:28.229Z,4.34
2023-03-22T03:51:56.533Z,4.32
2023-03-22T03:54:24.854Z,4.34
2023-03-22T03:56:53.806Z,4.36
2023-03-22T03:59:21.867Z,4.38
2023-03-22T04:01:52.779Z,4.36
2023-03-22T04:04:29.491Z,4.36
2023-03-22T04:07:03.719Z,4.37
2023-03-22T04:09:33.619Z,4.38
2023-03-22T04:12:21.868Z,4.38
2023-03-22T04:15:12.574Z,4.36
2023-03-22T04:17:41.774Z,4.32
2023-03-22T04:20:11.239Z,4.31
2023-03-22T04:22:39.550Z,4.34
2023-03-22T04:25:12.020Z,4.35
2023-03-22T04:27:42.959Z,4.38
2023-03-22T04:30:18.890Z,4.41
2023-03-22T04:33:07.099Z,4.41
2023-03-22T04:36:10.399Z,4.36
2023-03-22T04:38:48.874Z,4.31
2023-03-22T04:41:19.200Z,4.27
2023-03-22T04:43:51.096Z,4.22
2023-03-22T04:46:21.454Z,4.18
2023-03-22T04:48:57.746Z,4.12
2023-03-22T04:51:26.354Z,4.03
2023-03-22T04:54:13.659Z,3.94
2023-03-22T04:56:42.972Z,3.88
2023-03-22T04:59:11.385Z,3.85
2023-03-22T05:01:40.864Z,3.82
2023-03-22T05:04:16.190Z,3.82
2023-03-22T05:06:44.664Z,3.83
2023-03-22T05:09:26.358Z,3.81
2023-03-22T05:11:54.835Z,3.75
2023-03-22T05:14:39.942Z,3.73
2023-03-22T05:17:08.302Z,3.68
2023-03-22T05:19:36.982Z,3.66
2023-03-22T05:22:05.149Z,3.62
2023-03-22T05:24:45.708Z,3.59
2023-03-22T05:27:17.910Z,3.58
2023-03-22T05:29:46.906Z,3.52
2023-03-22T05:32:25.726Z,3.55
2023-03-22T05:34:55.606Z,3.56
2023-03-22T05:37:30.136Z,3.57
2023-03-22T05:39:59.130Z,3.55
2023-03-22T05:42:34.165Z,3.54
2023-03-22T05:45:03.173Z,3.56
2023-03-22T05:47:31.440Z,3.59
2023-03-22T05:50:10.492Z,3.58
2023-03-22T05:52:39.152Z,3.62
2023-03-22T05:55:19.924Z,3.65
2023-03-22T05:57:51.582Z,3.63
2023-03-22T06:00:20.168Z,3.61
2023-03-22T06:03:16.790Z,3.62
2023-03-22T06:05:46.826Z,3.67
2023-03-22T06:08:14.791Z,3.72
2023-03-22T06:10:43.026Z,3.81
2023-03-22T06:13:11.708Z,3.89
2023-03-22T06:15:39.730Z,3.97
2023-03-22T06:18:09.848Z,4.02
2023-03-22T06:20:41.731Z,4.12
2023-03-22T06:23:14.779Z,4.22
2023-03-22T06:25:42.975Z,4.31
2023-03-22T06:28:11.145Z,4.40
2023-03-22T06:30:40.537Z,4.52
2023-03-22T06:33:27.152Z,4.65
2023-03-22T06:36:01.009Z,4.78
2023-03-22T06:38:41.121Z,4.92
2023-03-22T06:41:09.693Z,5.04
2023-03-22T06:43:37.860Z,5.15
2023-03-22T06:46:26.980Z,5.24
2023-03-22T06:49:02.063Z,5.30
2023-03-22T06:51:30.340Z,5.36
2023-03-22T06:53:58.749Z,5.41
2023-03-22T06:56:27.406Z,5.47
2023-03-22T06:58:58.143Z,5.55
2023-03-22T07:01:26.695Z,5.61
2023-03-22T07:03:54.996Z,5.70
2023-03-22T07:06:24.102Z,5.81
2023-03-22T07:08:52.266Z,5.92
2023-03-22T07:11:25.982Z,6.04
2023-03-22T07:13:58.969Z,6.14
2023-03-22T07:16:29.829Z,6.21
2023-03-22T07:19:00.146Z,6.28
2023-03-22T07:21:28.239Z,6.29
2023-03-22T07:23:58.929Z,6.37
2023-03-22T07:26:30.739Z,6.44
2023-03-22T07:28:59.694Z,6.52
2023-03-22T07:31:31.658Z,6.61
2023-03-22T07:34:05.360Z,6.72
2023-03-22T07:36:39.665Z,6.86
2023-03-22T07:39:10.606Z,7.03
2023-03-22T07:41:41.648Z,7.18
2023-03-22T07:44:36.170Z,7.31
2023-03-22T07:47:30.556Z,7.39
2023-03-22T07:50:14.892Z,7.47
2023-03-22T07:52:45.834Z,7.54
2023-03-22T07:55:14.852Z,7.59
2023-03-22T07:57:43.146Z,7.63
2023-03-22T08:00:12.299Z,7.69
2023-03-22T08:03:06.620Z,7.75
2023-03-22T08:05:48.791Z,7.84
2023-03-22T08:08:16.954Z,7.92
2023-03-22T08:10:51.104Z,7.98
2023-03-22T08:13:19.444Z,8.04
2023-03-22T08:15:47.425Z,8.12
2023-03-22T08:18:15.692Z,8.25
2023-03-22T08:20:45.807Z,8.43
2023-03-22T08:23:18.198Z,8.64
2023-03-22T08:26:00.102Z,8.87
2023-03-22T08:28:28.060Z,9.08
2023-03-22T08:30:56.240Z,9.33
2023-03-22T08:33:24.191Z,9.59
2023-03-22T08:35:53.328Z,9.82
2023-03-22T08:38:21.315Z,10.02
2023-03-22T08:40:51.995Z,10.17
2023-03-22T08:43:23.134Z,10.35
2023-03-22T08:45:51.865Z,10.54
2023-03-22T08:48:21.257Z,10.73
2023-03-22T08:51:06.524Z,10.92
2023-03-22T08:53:50.263Z,11.15
2023-03-22T08:56:38.468Z,11.42
2023-03-22T08:59:23.255Z,11.69
2023-03-22T09:02:07.734Z,11.94
2023-03-22T09:04:36.355Z,12.16
2023-03-22T09:07:04.452Z,12.32
2023-03-22T09:09:32.464Z,12.49
2023-03-22T09:12:00.506Z,12.69
2023-03-22T09:14:28.572Z,12.91
2023-03-22T09:16:56.711Z,13.15
2023-03-22T09:19:24.718Z,13.40
2023-03-22T09:21:52.579Z,13.65
2023-03-22T09:24:31.305Z,13.86
2023-03-22T09:27:01.327Z,14.01
2023-03-22T09:29:29.577Z,14.08
2023-03-22T09:31:58.484Z,14.26
2023-03-22T09:34:29.731Z,14.44
2023-03-22T09:36:58.775Z,14.60
2023-03-22T09:39:29.874Z,14.75
2023-03-22T09:42:04.291Z,14.85
2023-03-22T09:44:34.838Z,14.99
2023-03-22T09:47:05.560Z,15.12
2023-03-22T09:49:52.633Z,15.19
2023-03-22T09:52:21.980Z,15.10
2023-03-22T09:54:52.605Z,15.16
2023-03-22T09:57:35.020Z,15.26
2023-03-22T10:00:13.446Z,14.87
2023-03-22T10:02:58.917Z,15.08
2023-03-22T10:05:29.613Z,15.40
2023-03-22T10:08:19.832Z,15.61
2023-03-22T10:10:47.811Z,15.75
2023-03-22T10:13:24.075Z,15.88
2023-03-22T10:15:54.249Z,15.89
2023-03-22T10:18:27.171Z,15.91
2023-03-22T10:21:02.820Z,15.54
2023-03-22T10:23:35.608Z,15.38
2023-03-22T10:26:04.972Z,15.37
2023-03-22T10:28:32.973Z,15.55
2023-03-22T10:31:01.578Z,15.70
2023-03-22T10:33:50.651Z,15.64
2023-03-22T10:36:22.494Z,15.81
2023-03-22T10:38:53.324Z,15.91
2023-03-22T10:41:23.761Z,16.03
2023-03-22T10:44:00.438Z,16.14
2023-03-22T10:46:32.249Z,16.29
2023-03-22T10:49:00.985Z,16.40
2023-03-22T10:51:42.656Z,16.45
2023-03-22T10:54:13.404Z,16.45
2023-03-22T10:56:41.641Z,16.56
2023-03-22T10:59:29.522Z,16.44
2023-03-22T11:01:57.660Z,16.43
2023-03-22T11:04:27.408Z,16.32
2023-03-22T11:06:56.455Z,16.58
2023-03-22T11:09:24.802Z,16.54
2023-03-22T11:11:57.047Z,16.68
2023-03-22T11:14:32.683Z,16.61
2023-03-22T11:17:06.654Z,16.58
2023-03-22T11:19:38.764Z,16.74
2023-03-22T11:22:26.904Z,16.86
2023-03-22T11:24:55.649Z,16.95
2023-03-22T11:27:28.797Z,17.15
2023-03-22T11:30:07.948Z,17.40
2023-03-22T11:32:37.671Z,17.33
2023-03-22T11:35:16.546Z,17.47
2023-03-22T11:37:45.951Z,17.72
2023-03-22T11:40:40.697Z,17.97
2023-03-22T11:43:22.751Z,18.17
2023-03-22T11:45:53.298Z,18.24
2023-03-22T11:48:23.416Z,18.06
2023-03-22T11:50:55.879Z,17.86
2023-03-22T11:53:25.794Z,17.98
2023-03-22T11:55:55.928Z,17.99
2023-03-22T11:58:24.132Z,18.05
2023-03-22T12:00:53.900Z,18.10
2023-03-22T12:03:24.351Z,18.07
2023-03-22T12:05:52.842Z,17.98
2023-03-22T12:08:25.652Z,17.89
2023-03-22T12:11:02.568Z,17.79
2023-03-22T12:13:40.336Z,17.70
2023-03-22T12:16:12.237Z,17.50
2023-03-22T12:18:48.391Z,17.43
2023-03-22T12:21:16.863Z,17.37
2023-03-22T12:23:44.939Z,17.26
2023-03-22T12:26:18.342Z,17.20
2023-03-22T12:28:55.726Z,17.63
2023-03-22T12:31:26.997Z,18.22
2023-03-22T12:33:56.688Z,18.93
2023-03-22T12:36:29.701Z,19.43
2023-03-22T12:38:59.288Z,19.35
2023-03-22T12:41:33.892Z,18.59
2023-03-22T12:44:03.828Z,18.20
2023-03-22T12:46:35.681Z,18.14
2023-03-22T12:49:07.622Z,18.29
2023-03-22T12:51:36.642Z,18.40
2023-03-22T12:54:05.732Z,18.47
2023-03-22T12:56:38.885Z,18.47
2023-03-22T12:59:12.690Z,18.38
2023-03-22T13:01:51.475Z,18.30
2023-03-22T13:04:28.229Z,18.20
2023-03-22T13:06:58.314Z,18.08
2023-03-22T13:09:40.962Z,17.92
2023-03-22T13:12:17.936Z,17.82
2023-03-22T13:14:49.827Z,17.71
2023-03-22T13:17:23.717Z,17.63
2023-03-22T13:19:51.495Z,17.59
2023-03-22T13:22:38.112Z,17.54
2023-03-22T13:25:27.161Z,17.48
2023-03-22T13:27:57.580Z,17.42
2023-03-22T13:30:44.179Z,17.35
2023-03-22T13:33:12.061Z,17.30
2023-03-22T13:35:44.270Z,17.30
2023-03-22T13:38:22.174Z,17.29
2023-03-22T13:40:50.188Z,17.26
2023-03-22T13:43:29.837Z,17.16
2023-03-22T13:46:03.840Z,17.15
2023-03-22T13:48:41.373Z,17.13
2023-03-22T13:51:12.283Z,17.11
2023-03-22T13:53:41.784Z,17.13
2023-03-22T13:56:12.614Z,17.17
2023-03-22T13:58:46.736Z,17.38
2023-03-22T14:01:17.293Z,17.47
2023-03-22T14:03:47.647Z,17.44
2023-03-22T14:06:28.194Z,17.39
2023-03-22T14:08:58.990Z,17.33
2023-03-22T14:11:29.643Z,17.21
2023-03-22T14:14:04.102Z,17.08
2023-03-22T14:16:35.596Z,17.06
2023-03-22T14:19:05.712Z,17.13
2023-03-22T14:21:38.495Z,17.56
